Time;durP1;ratioP1;P1;durP2;ratioP2;P2;SDS_P1;SDS_P2;PMS_P1;PMS_P2;Temp;Humidity;BMP_temperature;BMP_pressure;BME280_temperature;BME280_humidity;BME280_pressure;Samples;Min_cycle;Max_cycle;Signal;HPM_P1;HPM_P2
2023/10/20 00:01:07;;;;;;;20.27;17.88;;;16.30;99.90;;;;;;5032403;28;20514;-87
2023/10/20 00:03:48;;;;;;;22.70;19.17;;;16.30;99.90;;;;;;5032960;28;20116;-87
2023/10/20 00:06:14;;;;;;;25.15;19.05;;;15.80;99.90;;;;;;5033444;28;20022;-87
2023/10/20 00:09:00;;;;;;;24.05;18.50;;;16.10;99.90;;;;;;5046835;28;20024;-88
2023/10/20 00:11:26;;;;;;;27.45;20.67;;;14.80;99.90;;;;;;4993626;28;20046;-88
2023/10/20 00:14:13;;;;;;;28.13;20.15;;;15.70;99.90;;;;;;5045277;28;20022;-86
2023/10/20 00:16:48;;;;;;;28.45;20.38;;;15.70;99.90;;;;;;5037782;28;20104;-87
2023/10/20 00:19:13;;;;;;;26.85;20.23;;;15.70;99.90;;;;;;5032794;28;20018;-86
2023/10/20 00:21:39;;;;;;;35.20;21.67;;;15.50;99.90;;;;;;5032044;28;20028;-86
2023/10/20 00:24:12;;;;;;;23.80;20.73;;;16.30;99.90;;;;;;5032879;28;20397;-87
2023/10/20 00:26:56;;;;;;;26.77;20.70;;;16.30;99.90;;;;;;5032749;28;20037;-88
2023/10/20 00:29:22;;;;;;;28.48;21.02;;;15.60;99.90;;;;;;5039738;28;20095;-87
2023/10/20 00:32:01;;;;;;;24.52;21.92;;;15.70;99.90;;;;;;5052476;28;20440;-87
2023/10/20 00:34:38;;;;;;;26.77;22.45;;;16.10;99.90;;;;;;5052630;28;20021;-86
2023/10/20 00:37:22;;;;;;;26.23;22.52;;;14.70;99.90;;;;;;5051997;28;20523;-86
2023/10/20 00:39:48;;;;;;;25.98;22.83;;;16.50;99.90;;;;;;5052381;28;20025;-87
2023/10/20 00:42:14;;;;;;;28.08;23.92;;;16.10;99.90;;;;;;5034858;28;20029;-87
2023/10/20 00:44:59;;;;;;;29.20;24.30;;;16.20;99.90;;;;;;5051939;28;20534;-87
2023/10/20 00:47:25;;;;;;;29.63;24.58;;;15.00;99.90;;;;;;5052512;28;20027;-87
2023/10/20 00:50:13;;;;;;;25.88;23.15;;;15.90;99.90;;;;;;5050079;28;20037;-86
2023/10/20 00:53:00;;;;;;;28.48;24.42;;;14.80;99.90;;;;;;5052551;28;20029;-86
2023/10/20 00:55:41;;;;;;;28.45;24.30;;;14.90;99.90;;;;;;5056739;28;20489;-87
2023/10/20 00:58:19;;;;;;;28.17;24.15;;;14.80;99.90;;;;;;5052676;28;20025;-85
2023/10/20 01:01:05;;;;;;;28.88;24.83;;;15.40;99.90;;;;;;5052096;28;20032;-86
2023/10/20 01:03:33;;;;;;;30.45;23.73;;;14.90;99.90;;;;;;5050995;28;20035;-86
2023/10/20 01:06:11;;;;;;;32.17;23.92;;;16.30;99.90;;;;;;5052290;28;20025;-86
2023/10/20 01:08:36;;;;;;;35.28;25.27;;;14.60;99.90;;;;;;5056206;28;20021;-86
2023/10/20 01:11:02;;;;;;;29.50;24.98;;;15.40;99.90;;;;;;5054910;28;20362;-86
2023/10/20 01:13:30;;;;;;;30.13;26.77;;;16.20;99.90;;;;;;5052388;28;20372;-86
2023/10/20 01:15:56;;;;;;;33.03;24.67;;;14.80;99.90;;;;;;5053167;28;20029;-86
2023/10/20 01:18:35;;;;;;;29.02;25.48;;;15.10;99.90;;;;;;5055776;28;20067;-86
2023/10/20 01:21:00;;;;;;;31.23;24.63;;;14.80;99.90;;;;;;5056073;28;20025;-87
2023/10/20 01:23:45;;;;;;;28.38;23.73;;;15.90;99.90;;;;;;5056377;28;20100;-85
2023/10/20 01:26:29;;;;;;;29.83;25.70;;;15.00;99.90;;;;;;5055309;28;20025;-86
2023/10/20 01:28:55;;;;;;;33.80;25.35;;;14.80;99.90;;;;;;5056063;28;20024;-87
2023/10/20 01:31:30;;;;;;;28.20;25.05;;;15.90;99.90;;;;;;5056177;28;20395;-86
2023/10/20 01:33:56;;;;;;;29.88;24.27;;;15.60;99.90;;;;;;5054801;28;20476;-87
2023/10/20 01:36:43;;;;;;;29.88;24.85;;;14.90;99.90;;;;;;5056157;28;20067;-87
2023/10/20 01:39:29;;;;;;;30.73;24.38;;;14.70;99.90;;;;;;5055560;28;20109;-87
2023/10/20 01:41:55;;;;;;;29.88;24.55;;;15.70;99.90;;;;;;5055631;28;20029;-86
2023/10/20 01:44:33;;;;;;;27.73;23.60;;;14.70;99.90;;;;;;5055389;28;20036;-87
2023/10/20 01:47:11;;;;;;;26.35;23.58;;;16.10;99.90;;;;;;5054930;28;20025;-87
2023/10/20 01:49:37;;;;;;;27.98;23.40;;;15.80;99.90;;;;;;5055351;28;20029;-87
2023/10/20 01:52:12;;;;;;;33.17;23.55;;;15.90;99.90;;;;;;5055707;28;20021;-86
2023/10/20 01:54:37;;;;;;;30.58;23.45;;;14.60;99.90;;;;;;5055015;28;20025;-87
2023/10/20 01:57:21;;;;;;;31.10;24.20;;;15.40;99.90;;;;;;5055173;28;20430;-87
2023/10/20 01:59:47;;;;;;;26.58;23.85;;;15.60;99.90;;;;;;5053292;28;20047;-87
2023/10/20 02:02:21;;;;;;;32.20;25.45;;;14.70;99.90;;;;;;5068851;28;20009;-86
2023/10/20 02:04:59;;;;;;;28.60;23.38;;;16.20;99.90;;;;;;5068898;28;20028;-87
2023/10/20 02:07:25;;;;;;;30.30;23.73;;;14.80;99.90;;;;;;5061791;28;20020;-86
2023/10/20 02:10:10;;;;;;;32.03;24.35;;;15.20;99.90;;;;;;5060456;28;20080;-87
2023/10/20 02:12:35;;;;;;;26.95;23.98;;;14.70;99.90;;;;;;5056123;28;20029;-85
2023/10/20 02:15:01;;;;;;;27.80;23.83;;;15.20;99.90;;;;;;5054982;28;20448;-87
2023/10/20 02:17:26;;;;;;;25.77;22.58;;;16.10;99.90;;;;;;5054743;28;20075;-85
2023/10/20 02:20:05;;;;;;;29.10;22.05;;;15.10;99.90;;;;;;5054258;28;20028;-86
2023/10/20 02:22:53;;;;;;;26.13;22.23;;;14.70;99.90;;;;;;5054167;28;20032;-88
2023/10/20 02:25:30;;;;;;;26.27;22.65;;;16.20;99.90;;;;;;5055229;28;20013;-87
2023/10/20 02:28:14;;;;;;;29.83;23.98;;;16.00;99.90;;;;;;5054493;28;20025;-86
2023/10/20 02:30:39;;;;;;;26.45;22.98;;;16.00;99.90;;;;;;5054750;28;20385;-87
2023/10/20 02:33:26;;;;;;;31.35;25.10;;;15.60;99.90;;;;;;5054867;28;20028;-86
2023/10/20 02:36:16;;;;;;;29.05;23.65;;;16.10;99.90;;;;;;5054303;28;20061;-86
2023/10/20 02:38:42;;;;;;;29.42;25.25;;;16.30;99.90;;;;;;5054503;28;20404;-87
2023/10/20 02:41:29;;;;;;;27.05;23.75;;;14.70;99.90;;;;;;5056462;28;20025;-86
2023/10/20 02:43:55;;;;;;;27.95;24.42;;;14.80;99.90;;;;;;5056287;28;20023;-86
2023/10/20 02:46:38;;;;;;;31.38;26.55;;;15.90;99.90;;;;;;5059239;28;20099;-87
2023/10/20 02:49:26;;;;;;;30.20;26.23;;;15.90;99.90;;;;;;5054178;28;20108;-86
2023/10/20 02:51:51;;;;;;;34.10;26.67;;;14.30;99.90;;;;;;5054172;28;20087;-86
2023/10/20 02:54:35;;;;;;;34.40;25.88;;;15.90;99.90;;;;;;5054262;28;20033;-86
2023/10/20 02:57:05;;;;;;;34.35;27.08;;;15.00;99.90;;;;;;5054041;28;20021;-86
2023/10/20 02:59:37;;;;;;;31.27;27.88;;;16.00;99.90;;;;;;5067400;28;20100;-86
2023/10/20 03:02:23;;;;;;;34.78;26.80;;;15.40;99.90;;;;;;5053840;28;20029;-86
2023/10/20 03:05:10;;;;;;;33.60;27.75;;;16.10;99.90;;;;;;5053146;28;20504;-86
2023/10/20 03:10:21;;;;;;;36.95;28.30;;;15.10;99.90;;;;;;5053305;28;20398;-85
2023/10/20 03:13:05;;;;;;;34.72;28.65;;;15.50;99.90;;;;;;5053516;28;20099;-86
2023/10/20 03:15:31;;;;;;;33.67;27.50;;;15.70;99.90;;;;;;5053730;28;20127;-86
2023/10/20 03:18:16;;;;;;;34.50;28.10;;;15.40;99.90;;;;;;5052911;28;20033;-86
2023/10/20 03:20:43;;;;;;;32.53;29.05;;;13.30;99.90;;;;;;5053298;28;20033;-86
2023/10/20 03:23:28;;;;;;;39.00;30.33;;;15.80;99.90;;;;;;5053147;28;20021;-87
2023/10/20 03:25:54;;;;;;;37.80;31.55;;;15.70;99.90;;;;;;5052850;28;20553;-87
2023/10/20 03:28:35;;;;;;;36.20;30.65;;;15.50;99.90;;;;;;5053979;28;20108;-87
2023/10/20 03:31:19;;;;;;;39.55;31.50;;;14.60;99.90;;;;;;5053923;28;20037;-87
2023/10/20 03:33:46;;;;;;;39.20;30.20;;;15.30;99.90;;;;;;5053700;28;20025;-87
2023/10/20 03:36:27;;;;;;;40.00;31.02;;;14.60;99.90;;;;;;5053941;28;20033;-88
2023/10/20 03:39:23;;;;;;;39.70;31.23;;;15.70;99.90;;;;;;5052603;28;20104;-88
2023/10/20 03:42:02;;;;;;;37.97;30.48;;;15.00;99.90;;;;;;5034200;28;20048;-88
2023/10/20 03:44:29;;;;;;;45.10;30.67;;;15.90;99.90;;;;;;5052808;28;20360;-87
2023/10/20 03:47:17;;;;;;;39.20;32.17;;;14.60;99.90;;;;;;5053071;28;20048;-87
2023/10/20 03:52:55;;;;;;;41.38;30.65;;;14.50;99.90;;;;;;5067333;28;20051;-88
2023/10/20 03:55:42;;;;;;;38.70;31.55;;;14.50;99.90;;;;;;5044537;28;20036;-89
2023/10/20 03:58:08;;;;;;;36.10;29.13;;;13.90;99.90;;;;;;5053752;28;20017;-89
2023/10/20 04:00:46;;;;;;;40.70;30.60;;;15.50;99.90;;;;;;5053054;28;20055;-87
2023/10/20 04:03:11;;;;;;;36.17;29.13;;;14.50;99.90;;;;;;5052901;28;20024;-89
2023/10/20 04:05:53;;;;;;;34.92;28.50;;;16.00;99.90;;;;;;5051814;28;20427;-88
2023/10/20 04:08:37;;;;;;;40.65;30.75;;;15.70;99.90;;;;;;5052215;28;20037;-87
2023/10/20 04:11:24;;;;;;;40.83;29.95;;;14.50;99.90;;;;;;5050774;28;20493;-88
2023/10/20 04:14:12;;;;;;;39.33;29.35;;;14.40;99.90;;;;;;5034868;28;20041;-88
2023/10/20 04:16:56;;;;;;;32.30;26.65;;;14.50;99.90;;;;;;5053559;28;20044;-86
2023/10/20 04:19:22;;;;;;;44.40;29.77;;;15.80;99.90;;;;;;5053099;28;20025;-88
2023/10/20 04:22:12;;;;;;;37.88;29.33;;;15.90;99.90;;;;;;5052760;28;20461;-88
2023/10/20 04:24:54;;;;;;;;;;;15.50;99.90;;;;;;5054346;28;20025;-88
2023/10/20 04:58:18;;;;;;;37.85;26.85;;;14.80;99.90;;;;;;5052354;28;20043;-88
2023/10/20 05:01:03;;;;;;;42.00;27.63;;;14.00;99.90;;;;;;5046400;28;20029;-89
2023/10/20 05:03:45;;;;;;;44.08;28.83;;;14.20;99.90;;;;;;5051878;28;20025;-88
2023/10/20 05:06:42;;;;;;;41.92;27.77;;;14.00;99.90;;;;;;5048635;28;20033;-87
2023/10/20 05:09:17;;;;;;;35.92;26.05;;;15.30;99.90;;;;;;5052026;28;20036;-88
2023/10/20 05:11:43;;;;;;;38.35;26.88;;;14.10;99.90;;;;;;5041858;28;20071;-87
2023/10/20 05:14:09;;;;;;;41.53;28.10;;;14.20;99.90;;;;;;5041049;28;20021;-86
2023/10/20 05:16:50;;;;;;;45.80;27.95;;;14.40;99.90;;;;;;5044531;28;20040;-87
2023/10/20 05:19:15;;;;;;;43.85;27.95;;;14.90;99.90;;;;;;5033886;28;20494;-88
2023/10/20 05:21:41;;;;;;;39.17;27.38;;;14.30;99.90;;;;;;5032005;28;20029;-87
2023/10/20 05:24:26;;;;;;;41.40;25.95;;;13.70;99.90;;;;;;5031047;28;20095;-88
2023/10/20 05:26:51;;;;;;;38.80;25.80;;;13.70;99.90;;;;;;5030530;28;20032;-88
2023/10/20 05:29:38;;;;;;;39.22;26.13;;;13.80;99.90;;;;;;5031595;28;20018;-87
2023/10/20 05:32:06;;;;;;;37.50;25.27;;;13.80;99.90;;;;;;5030737;28;20037;-87
2023/10/20 05:34:32;;;;;;;37.20;24.50;;;14.00;99.90;;;;;;5031665;28;20029;-89
2023/10/20 05:37:16;;;;;;;43.00;27.38;;;13.40;99.90;;;;;;5032763;28;20029;-91
2023/10/20 05:39:54;;;;;;;41.80;26.63;;;13.70;99.90;;;;;;5027739;28;20021;-88
2023/10/20 05:42:22;;;;;;;48.33;26.92;;;14.60;99.90;;;;;;5040737;28;20031;-87
2023/10/20 05:44:58;;;;;;;42.33;27.30;;;14.70;99.90;;;;;;5057192;23;20048;-88
2023/10/20 05:47:24;;;;;;;42.50;27.17;;;14.10;99.90;;;;;;5072014;28;20040;-88
2023/10/20 05:49:51;;;;;;;46.55;27.55;;;13.30;99.90;;;;;;5072816;28;20028;-89
2023/10/20 05:52:17;;;;;;;43.88;27.13;;;13.20;99.90;;;;;;5071398;28;20063;-89
2023/10/20 05:54:43;;;;;;;45.40;26.98;;;13.20;99.90;;;;;;5071791;28;20052;-88
2023/10/20 05:57:08;;;;;;;41.65;26.67;;;13.20;99.90;;;;;;5072558;28;20102;-89
2023/10/20 05:59:34;;;;;;;42.80;27.38;;;13.20;99.90;;;;;;5071593;28;20021;-89
2023/10/20 06:02:03;;;;;;;42.88;27.20;;;13.20;99.90;;;;;;5073303;28;20020;-88
2023/10/20 06:04:28;;;;;;;41.38;27.08;;;13.10;99.90;;;;;;5075470;28;20077;-87
2023/10/20 06:06:54;;;;;;;45.35;26.35;;;13.10;99.90;;;;;;5074369;28;20115;-87
2023/10/20 06:09:20;;;;;;;43.42;26.70;;;13.10;99.90;;;;;;5075505;28;20075;-88
2023/10/20 06:11:45;;;;;;;39.95;24.85;;;13.10;99.90;;;;;;5075132;28;20028;-87
2023/10/20 06:14:14;;;;;;;42.25;26.13;;;13.10;99.90;;;;;;5073314;28;20040;-87
2023/10/20 06:16:39;;;;;;;39.70;25.23;;;13.40;99.90;;;;;;5076184;28;20476;-88
2023/10/20 06:19:24;;;;;;;38.85;24.88;;;14.00;99.90;;;;;;5075994;28;20027;-86
2023/10/20 06:21:50;;;;;;;39.72;24.85;;;13.00;99.90;;;;;;5055217;28;20028;-87
2023/10/20 06:24:33;;;;;;;40.78;25.15;;;13.60;99.90;;;;;;5067207;28;20031;-88
2023/10/20 06:27:02;;;;;;;31.60;21.38;;;13.90;99.90;;;;;;5074641;28;20024;-87
2023/10/20 06:29:56;;;;;;;33.83;22.35;;;13.60;99.90;;;;;;5075108;28;20040;-87
2023/10/20 06:32:42;;;;;;;32.33;21.23;;;14.00;99.90;;;;;;5038853;28;20575;-88
2023/10/20 06:35:32;;;;;;;33.65;21.35;;;13.00;99.90;;;;;;5069626;28;20025;-88
2023/10/20 06:40:47;;;;;;;26.42;19.05;;;13.60;99.90;;;;;;5068174;28;20546;-86
2023/10/20 06:43:13;;;;;;;27.90;18.58;;;13.00;99.90;;;;;;5071551;28;20040;-86
2023/10/20 06:45:56;;;;;;;23.77;16.60;;;12.20;99.90;;;;;;5075656;28;20146;-87
2023/10/20 06:48:21;;;;;;;23.48;16.92;;;14.10;99.90;;;;;;5082157;28;20483;-88
2023/10/20 06:51:09;;;;;;;24.25;15.88;;;14.40;99.90;;;;;;5084056;28;20035;-86
2023/10/20 06:53:35;;;;;;;22.38;16.10;;;13.00;99.90;;;;;;5085347;28;20040;-87
2023/10/20 06:56:05;;;;;;;26.45;16.48;;;13.50;99.90;;;;;;5084391;28;20537;-86
2023/10/20 06:58:47;;;;;;;22.23;15.88;;;13.80;99.90;;;;;;5076220;28;20029;-89
2023/10/20 07:01:13;;;;;;;21.90;15.68;;;13.10;99.90;;;;;;5081289;28;20040;-87
2023/10/20 07:03:56;;;;;;;21.13;15.48;;;13.10;99.90;;;;;;5072002;28;20031;-85
2023/10/20 07:06:22;;;;;;;20.38;14.13;;;14.10;99.90;;;;;;5078904;28;20048;-87
2023/10/20 07:08:50;;;;;;;16.65;13.77;;;12.50;99.90;;;;;;5056722;28;20059;-87
2023/10/20 07:11:28;;;;;;;17.15;13.18;;;13.80;99.90;;;;;;5016652;28;20044;-87
2023/10/20 07:13:54;;;;;;;15.18;12.80;;;14.10;99.90;;;;;;5051830;28;20021;-87
2023/10/20 07:16:27;;;;;;;14.63;12.48;;;14.10;99.90;;;;;;5051332;28;20095;-88
2023/10/20 07:18:54;;;;;;;13.55;11.27;;;13.70;99.90;;;;;;5057062;28;20484;-83
2023/10/20 07:21:38;;;;;;;12.23;10.57;;;13.10;99.90;;;;;;5071577;28;20071;-86
2023/10/20 07:24:04;;;;;;;13.57;11.02;;;13.80;99.90;;;;;;5065538;28;20025;-85
2023/10/20 07:26:30;;;;;;;11.77;10.18;;;12.50;99.90;;;;;;5052544;28;20513;-88
2023/10/20 07:29:17;;;;;;;13.55;10.10;;;12.30;99.90;;;;;;5071882;28;20095;-91
2023/10/20 07:32:04;;;;;;;12.40;9.77;;;12.30;99.90;;;;;;5084711;28;20040;-88
2023/10/20 07:34:29;;;;;;;10.60;9.50;;;13.20;99.90;;;;;;5074439;28;20040;-88
2023/10/20 07:36:56;;;;;;;12.70;10.20;;;13.60;99.90;;;;;;5073511;28;20051;-87
2023/10/20 07:39:37;;;;;;;11.85;9.63;;;13.30;99.90;;;;;;5032201;28;20072;-85
2023/10/20 07:42:03;;;;;;;10.40;9.40;;;13.90;99.90;;;;;;5053579;28;20032;-87
2023/10/20 07:44:54;;;;;;;14.05;8.88;;;12.50;99.90;;;;;;5053749;28;20048;-91
2023/10/20 07:47:33;;;;;;;11.82;9.73;;;12.40;99.90;;;;;;5072671;28;20104;-84
2023/10/20 07:50:00;;;;;;;10.70;9.60;;;12.00;99.90;;;;;;5072992;28;20373;-84
2023/10/20 07:52:26;;;;;;;13.60;9.70;;;13.80;99.90;;;;;;5072661;28;20099;-85
2023/10/20 07:54:52;;;;;;;12.13;10.45;;;12.40;99.90;;;;;;5071951;28;20024;-84
2023/10/20 07:57:20;;;;;;;10.85;9.75;;;12.30;99.90;;;;;;5072882;28;20027;-86
2023/10/20 07:59:57;;;;;;;14.55;10.68;;;12.30;99.90;;;;;;5063628;28;20035;-84
2023/10/20 08:02:23;;;;;;;13.70;9.88;;;13.60;99.90;;;;;;5072805;28;20075;-84
2023/10/20 08:04:50;;;;;;;11.98;9.90;;;12.40;99.90;;;;;;5071848;28;20763;-83
2023/10/20 08:07:16;;;;;;;10.73;9.15;;;12.60;99.90;;;;;;5073365;28;20042;-86
2023/10/20 08:09:41;;;;;;;14.32;10.18;;;13.30;99.90;;;;;;5072234;28;20032;-86
2023/10/20 08:14:49;;;;;;;9.75;8.55;;;12.30;99.90;;;;;;5045575;22;20049;-85
2023/10/20 08:17:14;;;;;;;9.10;8.10;;;12.90;99.90;;;;;;5032960;28;20030;-85
2023/10/20 08:19:44;;;;;;;10.10;8.95;;;12.20;99.90;;;;;;5035332;28;20044;-85
2023/10/20 08:22:10;;;;;;;11.38;8.15;;;12.40;99.90;;;;;;5037123;28;20477;-85
2023/10/20 08:24:35;;;;;;;9.75;8.60;;;12.10;99.90;;;;;;5032627;28;20028;-85
2023/10/20 08:27:01;;;;;;;9.18;7.88;;;12.90;99.90;;;;;;5032538;28;20068;-86
2023/10/20 08:29:27;;;;;;;10.13;8.85;;;12.10;99.90;;;;;;5032225;28;20029;-84
2023/10/20 08:31:55;;;;;;;10.20;7.97;;;12.60;99.90;;;;;;5032992;28;20033;-85
2023/10/20 08:34:33;;;;;;;9.85;7.70;;;12.10;99.90;;;;;;5032635;28;20026;-85
2023/10/20 08:36:58;;;;;;;10.38;8.07;;;12.30;99.90;;;;;;5032426;28;20033;-86
2023/10/20 08:39:25;;;;;;;9.38;8.02;;;13.00;99.90;;;;;;5033718;28;20029;-87
2023/10/20 08:41:51;;;;;;;9.35;7.53;;;12.30;99.90;;;;;;5031719;28;20658;-83
2023/10/20 08:44:19;;;;;;;8.15;7.30;;;12.60;99.90;;;;;;5032231;28;20032;-84
2023/10/20 08:46:45;;;;;;;9.77;7.40;;;12.00;99.90;;;;;;5031526;28;20060;-82
2023/10/20 08:49:13;;;;;;;8.45;6.97;;;12.00;99.90;;;;;;5031316;28;20465;-84
2023/10/20 08:51:38;;;;;;;7.38;6.38;;;12.00;99.90;;;;;;5031862;28;20029;-85
2023/10/20 08:54:10;;;;;;;8.25;7.00;;;12.00;99.90;;;;;;5032354;28;20032;-84
2023/10/20 08:56:36;;;;;;;9.05;6.88;;;12.40;99.90;;;;;;5031245;28;20096;-83
2023/10/20 08:59:03;;;;;;;8.20;6.75;;;12.00;99.90;;;;;;5032170;28;20021;-83
2023/10/20 09:01:28;;;;;;;9.20;6.82;;;12.00;99.90;;;;;;5031937;28;20124;-84
2023/10/20 09:03:56;;;;;;;8.25;6.82;;;13.00;99.90;;;;;;5029468;28;20060;-83
2023/10/20 09:06:25;;;;;;;7.68;6.88;;;11.90;99.90;;;;;;5029438;28;20036;-84
2023/10/20 09:08:52;;;;;;;6.72;6.10;;;12.20;99.90;;;;;;5029506;28;20025;-83
2023/10/20 09:11:19;;;;;;;7.32;5.82;;;11.90;99.90;;;;;;5030194;28;20072;-82
2023/10/20 09:13:47;;;;;;;8.60;6.35;;;11.90;99.90;;;;;;5029826;28;20068;-82
2023/10/20 09:16:14;;;;;;;6.15;5.55;;;11.90;99.90;;;;;;5029852;28;20482;-83
2023/10/20 09:18:50;;;;;;;5.93;5.18;;;11.90;99.90;;;;;;5030587;28;20417;-83
2023/10/20 09:21:18;;;;;;;4.90;4.43;;;11.90;99.90;;;;;;5032039;28;20021;-83
2023/10/20 09:24:14;;;;;;;6.32;4.78;;;11.80;99.90;;;;;;5030697;28;20553;-84
2023/10/20 09:26:40;;;;;;;13.98;11.98;;;11.90;99.90;;;;;;5015033;28;20121;-82
2023/10/20 09:29:07;;;;;;;5.32;4.68;;;11.90;99.90;;;;;;5031717;28;20100;-83
2023/10/20 09:31:34;;;;;;;5.20;4.20;;;11.90;99.90;;;;;;5030897;28;20104;-82
2023/10/20 09:34:00;;;;;;;3.97;3.38;;;11.90;99.90;;;;;;5030317;28;20108;-83
2023/10/20 09:36:29;;;;;;;5.85;4.07;;;11.90;99.90;;;;;;5032383;28;20448;-82
2023/10/20 09:38:57;;;;;;;3.72;3.40;;;11.90;99.90;;;;;;5034881;28;20022;-80
2023/10/20 09:41:25;;;;;;;4.28;3.55;;;11.90;99.90;;;;;;5036372;28;20056;-85
2023/10/20 09:44:06;;;;;;;3.85;3.53;;;11.80;99.90;;;;;;5035479;28;20025;-84
2023/10/20 09:46:48;;;;;;;3.85;3.30;;;11.80;99.90;;;;;;5036850;28;20053;-85
2023/10/20 09:49:18;;;;;;;5.18;3.25;;;11.70;99.90;;;;;;5035844;28;20485;-85
2023/10/20 09:51:45;;;;;;;4.07;3.33;;;11.70;99.90;;;;;;5034498;28;20551;-84
2023/10/20 09:54:14;;;;;;;3.22;2.92;;;11.70;99.90;;;;;;5034600;28;20071;-84
2023/10/20 09:56:42;;;;;;;3.28;2.72;;;11.80;99.90;;;;;;5034791;28;20581;-85
2023/10/20 09:59:09;;;;;;;3.25;2.92;;;11.70;99.90;;;;;;5016154;28;20026;-85
2023/10/20 10:01:37;;;;;;;3.25;2.47;;;11.70;99.90;;;;;;5022014;28;20026;-84
2023/10/20 10:04:04;;;;;;;3.35;2.50;;;11.70;99.90;;;;;;5035272;28;20029;-85
2023/10/20 10:06:38;;;;;;;3.20;2.72;;;11.70;99.90;;;;;;5034498;28;20025;-85
2023/10/20 10:09:05;;;;;;;3.25;2.95;;;11.70;99.90;;;;;;5035283;28;20388;-84
2023/10/20 10:11:37;;;;;;;4.13;2.42;;;11.70;99.90;;;;;;5034544;28;20484;-84
2023/10/20 10:14:06;;;;;;;2.78;2.05;;;11.70;99.90;;;;;;5034206;28;20044;-85
2023/10/20 10:16:36;;;;;;;2.58;2.38;;;11.70;99.90;;;;;;5034580;28;20434;-85
2023/10/20 10:19:09;;;;;;;2.20;2.00;;;12.70;99.90;;;;;;5034024;28;20113;-84
2023/10/20 10:21:38;;;;;;;2.00;1.75;;;11.70;99.90;;;;;;5035038;28;20418;-83
2023/10/20 10:24:16;;;;;;;2.28;1.65;;;11.70;99.90;;;;;;5037190;28;20036;-84
2023/10/20 10:26:51;;;;;;;3.63;1.90;;;11.70;99.90;;;;;;5035856;28;20022;-84
2023/10/20 10:29:41;;;;;;;2.50;1.70;;;11.70;99.90;;;;;;5035558;28;20018;-84
2023/10/20 10:32:13;;;;;;;1.60;1.48;;;11.60;99.90;;;;;;5034946;28;20428;-85
2023/10/20 10:34:46;;;;;;;2.08;1.88;;;11.60;99.90;;;;;;5032988;28;20136;-85
2023/10/20 10:37:12;;;;;;;1.30;1.20;;;11.60;99.90;;;;;;5032222;28;20025;-84
2023/10/20 10:39:38;;;;;;;1.00;1.00;;;12.70;99.90;;;;;;5034407;28;20029;-84
2023/10/20 10:42:05;;;;;;;1.25;1.15;;;11.60;99.90;;;;;;5033837;28;20028;-81
2023/10/20 10:44:38;;;;;;;1.00;0.98;;;11.60;99.90;;;;;;5031623;28;20021;-82
2023/10/20 10:47:05;;;;;;;1.13;1.02;;;11.60;99.90;;;;;;5034633;28;20052;-84
2023/10/20 10:49:33;;;;;;;0.90;0.80;;;11.60;99.90;;;;;;5032448;28;20022;-82
2023/10/20 10:52:07;;;;;;;2.38;1.25;;;11.60;99.90;;;;;;5034135;28;20030;-82
2023/10/20 10:54:33;;;;;;;1.15;1.05;;;11.60;99.90;;;;;;5033302;28;20076;-82
2023/10/20 10:57:06;;;;;;;0.80;0.80;;;11.60;99.90;;;;;;5032908;28;20041;-82
2023/10/20 10:59:33;;;;;;;1.77;0.95;;;11.60;99.90;;;;;;5034054;28;20096;-81
2023/10/20 11:02:03;;;;;;;2.13;1.23;;;11.60;99.90;;;;;;5033077;28;20060;-82
2023/10/20 11:04:29;;;;;;;0.77;0.77;;;11.60;99.90;;;;;;5033306;28;20547;-82
2023/10/20 11:06:55;;;;;;;1.20;1.10;;;11.60;99.90;;;;;;5032746;28;20284;-84
2023/10/20 11:09:24;;;;;;;0.77;0.70;;;11.60;99.90;;;;;;5032933;28;20068;-81
2023/10/20 11:11:51;;;;;;;0.70;0.70;;;11.60;99.90;;;;;;5015466;28;20103;-83
2023/10/20 11:14:21;;;;;;;2.33;0.80;;;11.60;99.90;;;;;;5033543;28;20050;-82
2023/10/20 11:16:47;;;;;;;0.85;0.85;;;11.80;99.90;;;;;;5032836;28;20100;-83
2023/10/20 11:19:14;;;;;;;1.20;0.95;;;12.50;99.90;;;;;;5033194;28;20454;-84
2023/10/20 11:21:58;;;;;;;2.83;0.70;;;11.60;99.90;;;;;;5024808;28;20155;-84
2023/10/20 11:24:28;;;;;;;0.93;0.60;;;11.70;99.90;;;;;;5033621;28;20030;-85
2023/10/20 11:29:47;;;;;;;0.90;0.60;;;11.70;99.90;;;;;;5032328;28;20095;-85
2023/10/20 11:32:17;;;;;;;1.65;0.60;;;13.30;99.90;;;;;;5033164;28;20144;-86
2023/10/20 11:35:04;;;;;;;2.67;0.70;;;11.60;99.90;;;;;;5032986;28;20033;-85
2023/10/20 11:37:30;;;;;;;1.55;0.90;;;13.20;99.90;;;;;;5032742;28;20056;-85
2023/10/20 11:40:08;;;;;;;0.80;0.80;;;11.60;99.90;;;;;;5027548;28;20026;-85
2023/10/20 11:42:34;;;;;;;2.17;0.95;;;11.70;99.90;;;;;;5025064;28;20056;-85
2023/10/20 11:45:17;;;;;;;1.02;0.93;;;12.10;99.90;;;;;;5026843;28;20034;-85
2023/10/20 11:47:43;;;;;;;0.60;0.60;;;12.30;99.90;;;;;;5022588;28;20072;-85
2023/10/20 11:50:10;;;;;;;0.95;0.85;;;12.40;99.90;;;;;;5019720;28;20034;-84
2023/10/20 11:52:39;;;;;;;1.00;1.00;;;11.70;99.90;;;;;;5011813;28;20474;-83
2023/10/20 11:55:06;;;;;;;0.85;0.70;;;13.20;99.90;;;;;;5027694;28;20033;-84
2023/10/20 11:57:32;;;;;;;1.10;0.80;;;11.80;99.90;;;;;;5032250;28;20027;-84
2023/10/20 11:59:58;;;;;;;1.27;0.80;;;11.80;99.90;;;;;;5031781;28;20471;-84
2023/10/20 12:02:24;;;;;;;1.77;0.90;;;11.70;99.90;;;;;;5032773;28;20030;-84
2023/10/20 12:04:50;;;;;;;0.90;0.77;;;11.80;99.90;;;;;;5031462;28;20037;-84
2023/10/20 12:07:15;;;;;;;0.80;0.80;;;11.80;99.90;;;;;;5032630;28;20064;-84
2023/10/20 12:09:41;;;;;;;1.55;0.55;;;11.90;99.90;;;;;;5031955;28;20025;-84
2023/10/20 12:12:06;;;;;;;1.00;0.90;;;11.90;99.90;;;;;;5032146;28;20362;-84
2023/10/20 12:14:32;;;;;;;0.82;0.80;;;11.80;99.90;;;;;;5032302;28;20456;-83
2023/10/20 12:16:58;;;;;;;1.83;1.20;;;11.90;99.90;;;;;;5032468;28;20040;-84
2023/10/20 12:19:23;;;;;;;2.72;0.90;;;11.90;99.90;;;;;;5031852;28;20025;-83
2023/10/20 12:21:49;;;;;;;5.72;0.90;;;11.90;99.90;;;;;;5032159;28;20044;-83
2023/10/20 12:24:15;;;;;;;1.00;0.90;;;11.90;99.90;;;;;;5031755;28;20032;-84
2023/10/20 12:26:41;;;;;;;0.80;0.75;;;12.70;99.90;;;;;;5031322;28;20029;-84
2023/10/20 12:29:06;;;;;;;1.45;0.80;;;12.00;99.90;;;;;;5032187;28;20033;-85
2023/10/20 12:31:32;;;;;;;0.70;0.70;;;11.90;99.90;;;;;;5032296;28;20072;-83
2023/10/20 12:33:58;;;;;;;1.02;0.98;;;11.90;99.90;;;;;;5031683;28;20021;-84
2023/10/20 12:36:25;;;;;;;0.98;0.90;;;11.90;99.90;;;;;;5029812;28;20477;-84
2023/10/20 12:38:51;;;;;;;1.17;0.98;;;11.80;99.90;;;;;;5030962;28;20040;-84
2023/10/20 12:41:17;;;;;;;1.63;1.10;;;11.80;99.90;;;;;;5028406;28;20466;-84
2023/10/20 12:43:44;;;;;;;0.77;0.77;;;11.90;99.90;;;;;;5028426;28;20377;-84
2023/10/20 12:46:12;;;;;;;1.48;1.17;;;11.90;99.90;;;;;;5017045;28;20096;-83
2023/10/20 12:48:40;;;;;;;0.93;0.93;;;11.90;99.90;;;;;;5021829;28;20029;-83
2023/10/20 12:51:11;;;;;;;1.05;0.80;;;11.90;99.90;;;;;;5032034;28;20069;-84
2023/10/20 12:53:37;;;;;;;1.10;0.90;;;11.90;99.90;;;;;;5031777;28;20048;-84
2023/10/20 12:56:12;;;;;;;1.45;1.10;;;11.90;99.90;;;;;;5031246;28;20449;-84
2023/10/20 12:58:38;;;;;;;1.10;1.00;;;11.90;99.90;;;;;;5031319;28;20032;-83
2023/10/20 13:01:04;;;;;;;1.60;1.50;;;12.60;99.90;;;;;;5031225;28;20969;-83
2023/10/20 13:03:30;;;;;;;1.33;1.23;;;11.90;99.90;;;;;;5030232;28;20505;-83
2023/10/20 13:05:56;;;;;;;0.98;0.95;;;11.90;99.90;;;;;;5028616;28;20068;-83
2023/10/20 13:08:23;;;;;;;0.80;0.80;;;12.00;99.90;;;;;;5029754;28;20041;-83
2023/10/20 13:10:49;;;;;;;1.30;0.98;;;11.90;99.90;;;;;;5029401;28;20616;-83
2023/10/20 13:13:16;;;;;;;1.20;1.10;;;12.00;99.90;;;;;;5033725;28;20489;-85
2023/10/20 13:15:57;;;;;;;2.90;1.05;;;12.00;99.90;;;;;;5030926;28;20491;-84
2023/10/20 13:18:23;;;;;;;1.23;1.10;;;12.00;99.90;;;;;;5032895;28;20026;-82
2023/10/20 13:20:48;;;;;;;1.10;1.00;;;13.30;99.90;;;;;;5034615;28;20223;-84
2023/10/20 13:23:14;;;;;;;1.80;1.30;;;12.00;99.90;;;;;;5034939;28;20028;-84
2023/10/20 13:25:49;;;;;;;4.45;1.58;;;12.00;99.90;;;;;;5035170;28;20017;-84
2023/10/20 13:28:15;;;;;;;1.08;1.08;;;12.00;99.90;;;;;;5035616;28;20044;-84
2023/10/20 13:30:42;;;;;;;1.00;1.00;;;11.90;99.90;;;;;;5033999;28;20417;-83
2023/10/20 13:33:08;;;;;;;1.05;0.98;;;12.50;99.90;;;;;;5035093;28;20021;-84
2023/10/20 13:35:38;;;;;;;1.10;1.00;;;12.10;99.90;;;;;;5033603;28;20363;-86
2023/10/20 13:38:04;;;;;;;0.88;0.88;;;12.10;99.90;;;;;;5030082;28;20100;-84
2023/10/20 13:40:30;;;;;;;1.23;1.13;;;12.20;99.90;;;;;;5032406;28;20552;-81
2023/10/20 13:42:56;;;;;;;0.95;0.95;;;12.10;99.90;;;;;;5032841;28;20393;-83
2023/10/20 13:45:21;;;;;;;1.42;1.15;;;13.10;99.90;;;;;;5032281;28;20025;-86